METAR AND TAF INFORMATION
METAR FOR KTEX
ADDS - METARS form results

(0723 UTC 26 March 2019)
Data provider http://aviationweather.gov/metar/data/
 
METAR text: KTEX 260715Z AUTO 10003KT 10SM CLR 01/M15 A3039 RMK AO2
Conditions at: KTEX (TELLURIDE REGION, CO, US) observed 0715 UTC 26 March 2019
Temperature: 1.0°C (34°F)
Dewpoint: -15.0°C ( 5°F) [RH = 29%]
Pressure (altimeter): 30.39 inches Hg (1029.2 mb)
Winds: from the E (100 degrees) at 3 MPH (3 knots; 1.5 m/s)
Visibility: 10 or more miles (16+ km)
Ceiling: at least 12,000 feet AGL
Clouds: sky clear below 12,000 feet AGL
Weather: automated observation with no human augmentation;
there may or may not be significant weather present at this time

METAR text: KTEX 260655Z AUTO 00000KT 10SM CLR 01/M15 A3039 RMK AO2
Conditions at: KTEX (TELLURIDE REGION, CO, US) observed 0655 UTC 26 March 2019
Temperature: 1.0°C (34°F)
Dewpoint: -15.0°C ( 5°F) [RH = 29%]
Pressure (altimeter): 30.39 inches Hg (1029.2 mb)
Winds: calm
Visibility: 10 or more miles (16+ km)
Ceiling: at least 12,000 feet AGL
Clouds: sky clear below 12,000 feet AGL
Weather: automated observation with no human augmentation;
there may or may not be significant weather present at this time

METAR text: KTEX 260635Z AUTO 14008KT 10SM CLR 01/M15 A3039 RMK AO2
Conditions at: KTEX (TELLURIDE REGION, CO, US) observed 0635 UTC 26 March 2019
Temperature: 1.0°C (34°F)
Dewpoint: -15.0°C ( 5°F) [RH = 29%]
Pressure (altimeter): 30.39 inches Hg (1029.2 mb)
Winds: from the SE (140 degrees) at 9 MPH (8 knots; 4.1 m/s)
Visibility: 10 or more miles (16+ km)
Ceiling: at least 12,000 feet AGL
Clouds: sky clear below 12,000 feet AGL
Weather: automated observation with no human augmentation;
there may or may not be significant weather present at this time

Forecast for: KTEX (TELLURIDE REGION, CO, US)
Text: KTEX 260520Z 2606/2706 15007KT P6SM FEW250
Forecast period: 0600 to 1700 UTC 26 March 2019
Forecast type: FROM: standard forecast or significant change
Winds: from the SSE (150 degrees) at 8 MPH (7 knots; 3.6 m/s)
Visibility: 6 or more miles 10+ km)
Ceiling: at least 12,000 feet AGL
Clouds: few clouds at 25000 feet AGL
Weather: no significant weather forecast for this period
Text: FM261700 17008KT P6SM SCT200
Forecast period: 1700 to 2000 UTC 26 March 2019
Forecast type: FROM: standard forecast or significant change
Winds: from the S (170 degrees) at 9 MPH (8 knots; 4.1 m/s)
Visibility: 6 or more miles 10+ km)
Ceiling: at least 12,000 feet AGL
Clouds: scattered clouds at 20000 feet AGL
Weather: no significant weather forecast for this period
Text: FM262000 19011G21KT P6SM FEW200
Forecast period: 2000 UTC 26 March 2019 to 0200 UTC 27 March 2019
Forecast type: FROM: standard forecast or significant change
Winds: from the S (190 degrees) at 13 MPH (11 knots; 5.7 m/s)
gusting to 24 MPH (21 knots; 10.8 m/s)
Visibility: 6 or more miles 10+ km)
Ceiling: at least 12,000 feet AGL
Clouds: few clouds at 20000 feet AGL
Weather: no significant weather forecast for this period
Text: FM270200 16009KT P6SM SCT140
Forecast period: 0200 to 0600 UTC 27 March 2019
Forecast type: FROM: standard forecast or significant change
Winds: from the SSE (160 degrees) at 10 MPH (9 knots; 4.6 m/s)
Visibility: 6 or more miles 10+ km)
Ceiling: at least 12,000 feet AGL
Clouds: scattered clouds at 14000 feet AGL
Weather: no significant weather forecast for this period

 AIRPORT MAP

 RUNWAY INFORMATION
Runway 09 Runway length 6870 ft Runway width 100 ft
Runway elevation 9061 ft Runway displaced threshold 0 ft Runway heading 105
Runway 27 Runway length 6870 ft Runway width 100 ft
Runway elevation 9078 ft Runway displaced threshold 0 ft Runway heading 285

 AIRPORT FREQUENCIES
Type CNTR Name DENVER CNT Frequency 125.35 MHZ
Type FSS Name DENVER RDO Frequency 122.15 MHZ
Type UNIC Name CTAF/UNICO Frequency 123 MHZ

 AIRPORT NEAR NAVIGATION AIDS



Powered by Virtual Airlines Manager [v2.6.2]